首页
METAR-TAF:

METAR-TAF

机场 :

努庫斯機場

努库斯, 乌兹别克斯坦

纬度: 42-28-48N, 经度: 059-37-48E, 海拔: 77米

当前天气观测

该预报发布于22分钟前的15:00 UTC
静风
温度 34°C
湿度 13%
气压 1007 hPa
能见度10公里或以上
1500米以下无云,无积雨云

METAR: UTNN 171500Z 00000KT CAVOK 34/02 Q1007 R33/CLRD60 NOSIG

时间: 20:22 (15:22 UTC)

预报

该预报发布于4小时和22分钟前的11:00 UTC
预报有效从17日的 12点(UTC)到 18日的 12点(UTC)
风速4节,风向多变
能见度10公里或以上
1500米以下无云,无积雨云
短暂存在
从 17日的 14点(UTC)到 17日的 20点(UTC)
风速10节,风向西转西北,有时为20节阵风
短暂存在
从 18日的 06点(UTC)到 18日的 12点(UTC)
风速10节,风向北转东北,有时为20节阵风

TAF: UTNN 171100Z 1712/1812 VRB04KT CAVOK TEMPO 1714/1720 29010G20KT TEMPO 1806/1812 03010G20KT

超过4000个机场的气象观测和天气预报(METAR&TAF报告)。

可查询的气象台以黄色和红色小点在地图上表示。

将鼠标移到小点上方,可查看气象台名称。

然后点击查看天气观测和预报。

如需切换地图:点击带黑十字的绿色按钮放大地图;点击带横线的绿色按钮缩小地图;或者点击绿色箭头查看邻近地区的地图。


METAR-TAF: